sensor_id;sensor_type;location;lat;lon;timestamp;temperature;humidity
22781;DHT22;11557;50.884;4.322;2023-06-04T00:00:42;18.40;99.90
22781;DHT22;11557;50.884;4.322;2023-06-04T00:03:08;18.40;99.60
22781;DHT22;11557;50.884;4.322;2023-06-04T00:05:34;18.50;98.60
22781;DHT22;11557;50.884;4.322;2023-06-04T00:07:59;18.40;99.90
22781;DHT22;11557;50.884;4.322;2023-06-04T00:10:25;18.20;98.30
22781;DHT22;11557;50.884;4.322;2023-06-04T00:12:51;18.00;99.90
22781;DHT22;11557;50.884;4.322;2023-06-04T00:15:17;18.10;99.90
22781;DHT22;11557;50.884;4.322;2023-06-04T00:17:43;18.20;99.90
22781;DHT22;11557;50.884;4.322;2023-06-04T00:20:09;18.20;99.90
22781;DHT22;11557;50.884;4.322;2023-06-04T00:22:34;18.10;99.00
22781;DHT22;11557;50.884;4.322;2023-06-04T00:25:00;17.90;99.00
22781;DHT22;11557;50.884;4.322;2023-06-04T00:27:26;18.00;99.90
22781;DHT22;11557;50.884;4.322;2023-06-04T00:29:52;17.90;99.80
22781;DHT22;11557;50.884;4.322;2023-06-04T00:32:17;17.90;99.90
22781;DHT22;11557;50.884;4.322;2023-06-04T00:34:48;17.80;99.70
22781;DHT22;11557;50.884;4.322;2023-06-04T00:37:15;17.80;99.90
22781;DHT22;11557;50.884;4.322;2023-06-04T00:39:40;17.80;99.90
22781;DHT22;11557;50.884;4.322;2023-06-04T00:42:06;17.80;99.90
22781;DHT22;11557;50.884;4.322;2023-06-04T00:44:32;17.80;99.90
22781;DHT22;11557;50.884;4.322;2023-06-04T00:46:59;17.70;99.90
22781;DHT22;11557;50.884;4.322;2023-06-04T00:49:24;17.60;99.20
22781;DHT22;11557;50.884;4.322;2023-06-04T00:51:50;17.60;99.90
22781;DHT22;11557;50.884;4.322;2023-06-04T00:54:16;17.40;99.80
22781;DHT22;11557;50.884;4.322;2023-06-04T00:56:43;17.40;99.90
22781;DHT22;11557;50.884;4.322;2023-06-04T00:59:09;17.50;99.90
22781;DHT22;11557;50.884;4.322;2023-06-04T01:04:21;17.30;99.90
22781;DHT22;11557;50.884;4.322;2023-06-04T01:06:50;17.30;99.90
22781;DHT22;11557;50.884;4.322;2023-06-04T01:09:16;17.40;99.90
22781;DHT22;11557;50.884;4.322;2023-06-04T01:11:44;17.40;99.90
22781;DHT22;11557;50.884;4.322;2023-06-04T01:14:10;17.30;99.90
22781;DHT22;11557;50.884;4.322;2023-06-04T01:16:51;17.30;99.90
22781;DHT22;11557;50.884;4.322;2023-06-04T01:25:33;17.20;99.90
22781;DHT22;11557;50.884;4.322;2023-06-04T01:28:01;17.10;99.90
22781;DHT22;11557;50.884;4.322;2023-06-04T01:30:31;17.00;99.90
22781;DHT22;11557;50.884;4.322;2023-06-04T01:32:59;17.00;99.90
22781;DHT22;11557;50.884;4.322;2023-06-04T01:35:26;17.00;99.90
22781;DHT22;11557;50.884;4.322;2023-06-04T01:37:52;16.90;99.90
22781;DHT22;11557;50.884;4.322;2023-06-04T01:40:18;17.10;99.90
22781;DHT22;11557;50.884;4.322;2023-06-04T01:42:44;17.10;99.90
22781;DHT22;11557;50.884;4.322;2023-06-04T01:45:10;17.10;99.90
22781;DHT22;11557;50.884;4.322;2023-06-04T01:47:35;17.00;99.90
22781;DHT22;11557;50.884;4.322;2023-06-04T01:50:03;16.90;99.90
22781;DHT22;11557;50.884;4.322;2023-06-04T01:52:29;17.00;99.90
22781;DHT22;11557;50.884;4.322;2023-06-04T01:54:54;17.00;99.90
22781;DHT22;11557;50.884;4.322;2023-06-04T01:57:22;16.90;99.90
22781;DHT22;11557;50.884;4.322;2023-06-04T01:59:48;16.90;99.90
22781;DHT22;11557;50.884;4.322;2023-06-04T02:02:14;16.70;99.90
22781;DHT22;11557;50.884;4.322;2023-06-04T02:04:41;16.80;99.90
22781;DHT22;11557;50.884;4.322;2023-06-04T02:07:08;16.70;99.90
22781;DHT22;11557;50.884;4.322;2023-06-04T02:09:34;16.60;99.90
22781;DHT22;11557;50.884;4.322;2023-06-04T02:12:00;16.50;99.90
22781;DHT22;11557;50.884;4.322;2023-06-04T02:14:26;16.50;99.90
22781;DHT22;11557;50.884;4.322;2023-06-04T02:16:51;16.40;99.90
22781;DHT22;11557;50.884;4.322;2023-06-04T02:19:25;16.40;99.90
22781;DHT22;11557;50.884;4.322;2023-06-04T02:21:54;16.60;99.90
22781;DHT22;11557;50.884;4.322;2023-06-04T02:24:20;16.70;99.90
22781;DHT22;11557;50.884;4.322;2023-06-04T02:26:45;16.70;99.90
22781;DHT22;11557;50.884;4.322;2023-06-04T02:29:12;16.70;99.90
22781;DHT22;11557;50.884;4.322;2023-06-04T02:31:38;16.80;99.90
22781;DHT22;11557;50.884;4.322;2023-06-04T02:34:03;16.70;99.90
22781;DHT22;11557;50.884;4.322;2023-06-04T02:36:29;16.70;99.90
22781;DHT22;11557;50.884;4.322;2023-06-04T02:38:55;16.70;99.90
22781;DHT22;11557;50.884;4.322;2023-06-04T02:41:21;16.60;99.90
22781;DHT22;11557;50.884;4.322;2023-06-04T02:43:47;16.60;99.90
22781;DHT22;11557;50.884;4.322;2023-06-04T02:46:13;16.60;99.90
22781;DHT22;11557;50.884;4.322;2023-06-04T02:48:39;16.60;99.90
22781;DHT22;11557;50.884;4.322;2023-06-04T02:51:04;16.40;99.90
22781;DHT22;11557;50.884;4.322;2023-06-04T02:53:30;16.30;99.90
22781;DHT22;11557;50.884;4.322;2023-06-04T02:55:56;16.40;99.90
22781;DHT22;11557;50.884;4.322;2023-06-04T02:58:22;16.40;99.90
22781;DHT22;11557;50.884;4.322;2023-06-04T03:00:52;16.40;99.90
22781;DHT22;11557;50.884;4.322;2023-06-04T03:03:18;16.40;99.90
22781;DHT22;11557;50.884;4.322;2023-06-04T03:05:43;16.40;99.90
22781;DHT22;11557;50.884;4.322;2023-06-04T03:08:09;16.20;99.90
22781;DHT22;11557;50.884;4.322;2023-06-04T03:10:35;16.20;99.90
22781;DHT22;11557;50.884;4.322;2023-06-04T03:13:00;16.10;99.90
22781;DHT22;11557;50.884;4.322;2023-06-04T03:15:26;15.90;99.90
22781;DHT22;11557;50.884;4.322;2023-06-04T03:17:52;16.10;99.90
22781;DHT22;11557;50.884;4.322;2023-06-04T03:20:17;16.10;99.90
22781;DHT22;11557;50.884;4.322;2023-06-04T03:22:43;16.00;99.90
22781;DHT22;11557;50.884;4.322;2023-06-04T03:25:09;16.00;99.90
22781;DHT22;11557;50.884;4.322;2023-06-04T03:27:35;15.90;99.90
22781;DHT22;11557;50.884;4.322;2023-06-04T03:30:01;15.90;99.90
22781;DHT22;11557;50.884;4.322;2023-06-04T03:32:26;16.20;99.90
22781;DHT22;11557;50.884;4.322;2023-06-04T03:34:52;16.00;99.90
22781;DHT22;11557;50.884;4.322;2023-06-04T03:37:18;15.90;99.90
22781;DHT22;11557;50.884;4.322;2023-06-04T03:39:43;16.00;99.90
22781;DHT22;11557;50.884;4.322;2023-06-04T03:42:09;16.10;99.90
22781;DHT22;11557;50.884;4.322;2023-06-04T03:44:34;16.20;99.90
22781;DHT22;11557;50.884;4.322;2023-06-04T03:47:00;16.20;99.90
22781;DHT22;11557;50.884;4.322;2023-06-04T03:49:26;16.10;99.90
22781;DHT22;11557;50.884;4.322;2023-06-04T03:51:51;16.00;99.90
22781;DHT22;11557;50.884;4.322;2023-06-04T03:54:17;16.00;99.90
22781;DHT22;11557;50.884;4.322;2023-06-04T03:56:44;16.00;99.90
22781;DHT22;11557;50.884;4.322;2023-06-04T03:59:10;16.10;99.90
22781;DHT22;11557;50.884;4.322;2023-06-04T04:01:36;16.20;99.90
22781;DHT22;11557;50.884;4.322;2023-06-04T04:04:02;16.10;99.90
22781;DHT22;11557;50.884;4.322;2023-06-04T04:06:27;16.10;99.90
22781;DHT22;11557;50.884;4.322;2023-06-04T04:08:53;16.00;99.90
22781;DHT22;11557;50.884;4.322;2023-06-04T04:11:18;16.00;99.90
22781;DHT22;11557;50.884;4.322;2023-06-04T04:13:45;16.00;99.90
22781;DHT22;11557;50.884;4.322;2023-06-04T04:16:11;16.00;99.90
22781;DHT22;11557;50.884;4.322;2023-06-04T04:18:37;15.90;99.90
22781;DHT22;11557;50.884;4.322;2023-06-04T04:21:03;16.00;99.90
22781;DHT22;11557;50.884;4.322;2023-06-04T04:23:30;16.00;99.90
22781;DHT22;11557;50.884;4.322;2023-06-04T04:25:58;16.00;99.90
22781;DHT22;11557;50.884;4.322;2023-06-04T04:28:25;15.90;99.90
22781;DHT22;11557;50.884;4.322;2023-06-04T04:30:54;15.90;99.90
22781;DHT22;11557;50.884;4.322;2023-06-04T04:33:25;16.00;99.90
22781;DHT22;11557;50.884;4.322;2023-06-04T04:35:51;16.00;99.90
22781;DHT22;11557;50.884;4.322;2023-06-04T04:38:21;16.00;99.90
22781;DHT22;11557;50.884;4.322;2023-06-04T04:40:49;16.10;99.90
22781;DHT22;11557;50.884;4.322;2023-06-04T04:43:33;16.10;99.90
22781;DHT22;11557;50.884;4.322;2023-06-04T04:45:59;16.20;99.90
22781;DHT22;11557;50.884;4.322;2023-06-04T04:48:25;16.20;99.90
22781;DHT22;11557;50.884;4.322;2023-06-04T04:50:51;16.30;99.90
22781;DHT22;11557;50.884;4.322;2023-06-04T04:53:17;16.30;99.90
22781;DHT22;11557;50.884;4.322;2023-06-04T04:55:43;16.20;99.90
22781;DHT22;11557;50.884;4.322;2023-06-04T04:58:08;16.20;99.90
22781;DHT22;11557;50.884;4.322;2023-06-04T05:00:34;16.10;99.90
22781;DHT22;11557;50.884;4.322;2023-06-04T05:03:00;16.00;99.90
22781;DHT22;11557;50.884;4.322;2023-06-04T05:05:25;16.00;99.90
22781;DHT22;11557;50.884;4.322;2023-06-04T05:07:51;16.10;99.90
22781;DHT22;11557;50.884;4.322;2023-06-04T05:10:17;16.10;99.90
22781;DHT22;11557;50.884;4.322;2023-06-04T05:12:57;16.20;99.90
22781;DHT22;11557;50.884;4.322;2023-06-04T05:15:23;16.20;99.90
22781;DHT22;11557;50.884;4.322;2023-06-04T05:17:49;16.20;99.90
22781;DHT22;11557;50.884;4.322;2023-06-04T05:20:18;16.30;99.90
22781;DHT22;11557;50.884;4.322;2023-06-04T05:22:44;16.30;99.90
22781;DHT22;11557;50.884;4.322;2023-06-04T05:25:11;16.30;99.90
22781;DHT22;11557;50.884;4.322;2023-06-04T05:27:37;16.40;99.90
22781;DHT22;11557;50.884;4.322;2023-06-04T05:30:05;16.50;99.90
22781;DHT22;11557;50.884;4.322;2023-06-04T05:32:32;16.50;99.90
22781;DHT22;11557;50.884;4.322;2023-06-04T05:34:58;16.50;99.90
22781;DHT22;11557;50.884;4.322;2023-06-04T05:37:25;16.50;99.90
22781;DHT22;11557;50.884;4.322;2023-06-04T05:39:52;16.40;99.90
22781;DHT22;11557;50.884;4.322;2023-06-04T05:42:18;16.50;99.90
22781;DHT22;11557;50.884;4.322;2023-06-04T05:44:44;16.40;99.90
22781;DHT22;11557;50.884;4.322;2023-06-04T05:47:09;16.50;99.90
22781;DHT22;11557;50.884;4.322;2023-06-04T05:49:35;16.40;99.90
22781;DHT22;11557;50.884;4.322;2023-06-04T05:52:01;16.50;99.90
22781;DHT22;11557;50.884;4.322;2023-06-04T05:54:28;16.50;99.90
22781;DHT22;11557;50.884;4.322;2023-06-04T05:56:54;16.50;99.90
22781;DHT22;11557;50.884;4.322;2023-06-04T05:59:19;16.50;99.90
22781;DHT22;11557;50.884;4.322;2023-06-04T06:01:45;16.40;99.90
22781;DHT22;11557;50.884;4.322;2023-06-04T06:04:13;16.50;99.90
22781;DHT22;11557;50.884;4.322;2023-06-04T06:06:38;16.50;99.90
22781;DHT22;11557;50.884;4.322;2023-06-04T06:09:04;16.50;99.90
22781;DHT22;11557;50.884;4.322;2023-06-04T06:11:31;16.50;99.90
22781;DHT22;11557;50.884;4.322;2023-06-04T06:13:56;16.50;99.90
22781;DHT22;11557;50.884;4.322;2023-06-04T06:16:22;16.60;99.90
22781;DHT22;11557;50.884;4.322;2023-06-04T06:18:48;16.70;99.90
22781;DHT22;11557;50.884;4.322;2023-06-04T06:21:13;16.80;99.90
22781;DHT22;11557;50.884;4.322;2023-06-04T06:23:39;16.80;99.90
22781;DHT22;11557;50.884;4.322;2023-06-04T06:26:05;16.70;99.90
22781;DHT22;11557;50.884;4.322;2023-06-04T06:28:34;16.90;99.90
22781;DHT22;11557;50.884;4.322;2023-06-04T06:31:01;16.90;99.90
22781;DHT22;11557;50.884;4.322;2023-06-04T06:33:27;17.00;99.90
22781;DHT22;11557;50.884;4.322;2023-06-04T06:35:53;17.10;99.90
22781;DHT22;11557;50.884;4.322;2023-06-04T06:38:18;17.30;99.90
22781;DHT22;11557;50.884;4.322;2023-06-04T06:40:44;17.50;99.90
22781;DHT22;11557;50.884;4.322;2023-06-04T06:43:10;20.50;99.90
22781;DHT22;11557;50.884;4.322;2023-06-04T06:45:36;24.10;99.90
22781;DHT22;11557;50.884;4.322;2023-06-04T06:48:02;27.40;99.90
22781;DHT22;11557;50.884;4.322;2023-06-04T06:50:29;30.40;98.80
22781;DHT22;11557;50.884;4.322;2023-06-04T06:52:55;32.30;93.80
22781;DHT22;11557;50.884;4.322;2023-06-04T06:55:20;34.30;90.70
22781;DHT22;11557;50.884;4.322;2023-06-04T06:57:46;35.90;86.60
22781;DHT22;11557;50.884;4.322;2023-06-04T07:00:12;37.20;82.50
22781;DHT22;11557;50.884;4.322;2023-06-04T07:02:38;38.30;77.00
22781;DHT22;11557;50.884;4.322;2023-06-04T07:05:04;39.00;72.80
22781;DHT22;11557;50.884;4.322;2023-06-04T07:07:30;39.00;68.70
22781;DHT22;11557;50.884;4.322;2023-06-04T07:09:56;39.60;67.40
22781;DHT22;11557;50.884;4.322;2023-06-04T07:12:22;40.20;65.50
22781;DHT22;11557;50.884;4.322;2023-06-04T07:14:48;40.10;65.60
22781;DHT22;11557;50.884;4.322;2023-06-04T07:17:13;40.40;65.30
22781;DHT22;11557;50.884;4.322;2023-06-04T07:19:39;40.80;63.20
22781;DHT22;11557;50.884;4.322;2023-06-04T07:22:05;41.60;62.30
22781;DHT22;11557;50.884;4.322;2023-06-04T07:24:30;41.00;62.40
22781;DHT22;11557;50.884;4.322;2023-06-04T07:26:56;41.20;63.40
22781;DHT22;11557;50.884;4.322;2023-06-04T07:29:22;41.50;64.00
22781;DHT22;11557;50.884;4.322;2023-06-04T07:31:48;41.90;63.60
22781;DHT22;11557;50.884;4.322;2023-06-04T07:34:14;42.40;64.60
22781;DHT22;11557;50.884;4.322;2023-06-04T07:36:40;42.50;62.60
22781;DHT22;11557;50.884;4.322;2023-06-04T07:39:06;42.40;61.90
22781;DHT22;11557;50.884;4.322;2023-06-04T07:41:32;42.60;60.50
22781;DHT22;11557;50.884;4.322;2023-06-04T07:43:58;42.80;58.60
22781;DHT22;11557;50.884;4.322;2023-06-04T07:46:23;42.10;60.60
22781;DHT22;11557;50.884;4.322;2023-06-04T07:48:49;42.20;57.60
22781;DHT22;11557;50.884;4.322;2023-06-04T07:51:14;41.40;59.40
22781;DHT22;11557;50.884;4.322;2023-06-04T07:53:41;41.60;59.70
22781;DHT22;11557;50.884;4.322;2023-06-04T07:56:07;41.80;58.60
22781;DHT22;11557;50.884;4.322;2023-06-04T07:58:33;42.00;58.90
22781;DHT22;11557;50.884;4.322;2023-06-04T08:00:59;41.90;58.00
22781;DHT22;11557;50.884;4.322;2023-06-04T08:03:25;41.80;58.00
22781;DHT22;11557;50.884;4.322;2023-06-04T08:05:51;41.50;59.40
22781;DHT22;11557;50.884;4.322;2023-06-04T08:08:16;41.00;58.90
22781;DHT22;11557;50.884;4.322;2023-06-04T08:10:42;40.80;59.10
22781;DHT22;11557;50.884;4.322;2023-06-04T08:13:08;41.00;58.50
22781;DHT22;11557;50.884;4.322;2023-06-04T08:15:36;40.90;58.60
22781;DHT22;11557;50.884;4.322;2023-06-04T08:18:02;40.70;56.60
22781;DHT22;11557;50.884;4.322;2023-06-04T08:20:28;40.40;57.40
22781;DHT22;11557;50.884;4.322;2023-06-04T08:22:53;40.10;57.40
22781;DHT22;11557;50.884;4.322;2023-06-04T08:25:19;40.20;58.00
22781;DHT22;11557;50.884;4.322;2023-06-04T08:27:45;39.80;56.80
22781;DHT22;11557;50.884;4.322;2023-06-04T08:30:11;39.50;57.30
22781;DHT22;11557;50.884;4.322;2023-06-04T08:32:37;39.50;57.90
22781;DHT22;11557;50.884;4.322;2023-06-04T08:35:02;39.20;57.90
22781;DHT22;11557;50.884;4.322;2023-06-04T08:37:28;39.20;57.80
22781;DHT22;11557;50.884;4.322;2023-06-04T08:39:54;39.50;58.00
22781;DHT22;11557;50.884;4.322;2023-06-04T08:42:29;39.30;59.00
22781;DHT22;11557;50.884;4.322;2023-06-04T08:44:59;38.70;57.90
22781;DHT22;11557;50.884;4.322;2023-06-04T08:47:25;38.20;57.40
22781;DHT22;11557;50.884;4.322;2023-06-04T08:49:58;38.00;59.00
22781;DHT22;11557;50.884;4.322;2023-06-04T08:52:25;38.10;61.10
22781;DHT22;11557;50.884;4.322;2023-06-04T08:54:54;37.90;59.10
22781;DHT22;11557;50.884;4.322;2023-06-04T08:57:20;37.80;58.20
22781;DHT22;11557;50.884;4.322;2023-06-04T08:59:47;38.00;58.00
22781;DHT22;11557;50.884;4.322;2023-06-04T09:02:14;38.10;57.60
22781;DHT22;11557;50.884;4.322;2023-06-04T09:04:40;38.10;57.90
22781;DHT22;11557;50.884;4.322;2023-06-04T09:07:08;37.80;58.80
22781;DHT22;11557;50.884;4.322;2023-06-04T09:09:38;37.70;58.80
22781;DHT22;11557;50.884;4.322;2023-06-04T09:12:08;37.60;60.00
22781;DHT22;11557;50.884;4.322;2023-06-04T09:14:34;37.60;60.70
22781;DHT22;11557;50.884;4.322;2023-06-04T09:17:00;36.10;58.40
22781;DHT22;11557;50.884;4.322;2023-06-04T09:19:25;35.90;59.80
22781;DHT22;11557;50.884;4.322;2023-06-04T09:21:58;36.00;61.80
22781;DHT22;11557;50.884;4.322;2023-06-04T09:24:39;35.60;58.50
22781;DHT22;11557;50.884;4.322;2023-06-04T09:27:16;35.20;60.40
22781;DHT22;11557;50.884;4.322;2023-06-04T09:29:56;34.50;60.60
22781;DHT22;11557;50.884;4.322;2023-06-04T09:32:26;34.40;62.30
22781;DHT22;11557;50.884;4.322;2023-06-04T09:35:07;34.50;61.60
22781;DHT22;11557;50.884;4.322;2023-06-04T09:37:34;34.40;63.20
22781;DHT22;11557;50.884;4.322;2023-06-04T09:40:00;34.50;60.60
22781;DHT22;11557;50.884;4.322;2023-06-04T09:42:26;35.10;61.10
22781;DHT22;11557;50.884;4.322;2023-06-04T09:44:52;34.80;62.00
22781;DHT22;11557;50.884;4.322;2023-06-04T09:47:18;34.10;61.00
22781;DHT22;11557;50.884;4.322;2023-06-04T09:49:47;33.90;60.40
22781;DHT22;11557;50.884;4.322;2023-06-04T09:52:14;33.80;61.80
22781;DHT22;11557;50.884;4.322;2023-06-04T09:54:41;33.80;62.70
22781;DHT22;11557;50.884;4.322;2023-06-04T09:57:16;33.60;62.40
22781;DHT22;11557;50.884;4.322;2023-06-04T09:59:44;32.90;65.20
22781;DHT22;11557;50.884;4.322;2023-06-04T10:02:12;33.00;65.30
22781;DHT22;11557;50.884;4.322;2023-06-04T10:04:42;32.80;62.50
22781;DHT22;11557;50.884;4.322;2023-06-04T10:07:11;32.40;63.50
22781;DHT22;11557;50.884;4.322;2023-06-04T10:09:43;32.40;64.40
22781;DHT22;11557;50.884;4.322;2023-06-04T10:12:14;32.30;67.30
22781;DHT22;11557;50.884;4.322;2023-06-04T10:14:51;32.00;66.10
22781;DHT22;11557;50.884;4.322;2023-06-04T10:17:17;31.40;64.90
22781;DHT22;11557;50.884;4.322;2023-06-04T10:19:47;31.10;66.70
22781;DHT22;11557;50.884;4.322;2023-06-04T10:22:14;31.00;64.50
22781;DHT22;11557;50.884;4.322;2023-06-04T10:24:40;30.80;64.90
22781;DHT22;11557;50.884;4.322;2023-06-04T10:27:06;30.50;65.80
22781;DHT22;11557;50.884;4.322;2023-06-04T10:29:36;30.50;66.40
22781;DHT22;11557;50.884;4.322;2023-06-04T10:32:03;30.40;66.10
22781;DHT22;11557;50.884;4.322;2023-06-04T10:34:30;30.40;67.10
22781;DHT22;11557;50.884;4.322;2023-06-04T10:36:56;30.60;68.80
22781;DHT22;11557;50.884;4.322;2023-06-04T10:39:26;30.50;70.70
22781;DHT22;11557;50.884;4.322;2023-06-04T10:42:00;30.60;68.10
22781;DHT22;11557;50.884;4.322;2023-06-04T10:44:26;30.70;67.40
22781;DHT22;11557;50.884;4.322;2023-06-04T10:46:52;30.40;66.30
22781;DHT22;11557;50.884;4.322;2023-06-04T10:49:26;30.30;70.40
22781;DHT22;11557;50.884;4.322;2023-06-04T10:51:53;30.30;67.90
22781;DHT22;11557;50.884;4.322;2023-06-04T10:54:25;30.30;68.50
22781;DHT22;11557;50.884;4.322;2023-06-04T10:56:52;30.30;70.50
22781;DHT22;11557;50.884;4.322;2023-06-04T10:59:18;30.10;69.60
22781;DHT22;11557;50.884;4.322;2023-06-04T11:01:44;30.30;65.80
22781;DHT22;11557;50.884;4.322;2023-06-04T11:04:21;30.30;67.60
22781;DHT22;11557;50.884;4.322;2023-06-04T11:06:48;30.30;69.30
22781;DHT22;11557;50.884;4.322;2023-06-04T11:09:14;30.40;66.70
22781;DHT22;11557;50.884;4.322;2023-06-04T11:11:44;30.50;67.50
22781;DHT22;11557;50.884;4.322;2023-06-04T11:14:10;30.20;67.80
22781;DHT22;11557;50.884;4.322;2023-06-04T11:16:38;30.20;69.20
22781;DHT22;11557;50.884;4.322;2023-06-04T11:19:04;30.00;71.30
22781;DHT22;11557;50.884;4.322;2023-06-04T11:21:30;29.90;68.40
22781;DHT22;11557;50.884;4.322;2023-06-04T11:23:59;30.00;67.40
22781;DHT22;11557;50.884;4.322;2023-06-04T11:26:32;30.00;69.20
22781;DHT22;11557;50.884;4.322;2023-06-04T11:28:58;30.10;67.60
22781;DHT22;11557;50.884;4.322;2023-06-04T11:31:24;30.20;67.30
22781;DHT22;11557;50.884;4.322;2023-06-04T11:33:51;30.20;66.50
22781;DHT22;11557;50.884;4.322;2023-06-04T11:36:29;29.90;66.70
22781;DHT22;11557;50.884;4.322;2023-06-04T11:38:59;30.10;64.50
22781;DHT22;11557;50.884;4.322;2023-06-04T11:41:30;30.20;68.10
22781;DHT22;11557;50.884;4.322;2023-06-04T11:44:01;30.30;70.00
22781;DHT22;11557;50.884;4.322;2023-06-04T11:46:27;30.10;67.30
22781;DHT22;11557;50.884;4.322;2023-06-04T11:48:53;29.90;66.90
22781;DHT22;11557;50.884;4.322;2023-06-04T11:51:22;29.80;67.70
22781;DHT22;11557;50.884;4.322;2023-06-04T11:53:49;29.90;68.40
22781;DHT22;11557;50.884;4.322;2023-06-04T11:56:15;29.80;68.80
22781;DHT22;11557;50.884;4.322;2023-06-04T11:58:41;29.90;68.80
22781;DHT22;11557;50.884;4.322;2023-06-04T12:01:08;29.80;68.70
22781;DHT22;11557;50.884;4.322;2023-06-04T12:03:38;29.70;67.10
22781;DHT22;11557;50.884;4.322;2023-06-04T12:06:15;29.60;66.50
22781;DHT22;11557;50.884;4.322;2023-06-04T12:08:49;29.60;66.70
22781;DHT22;11557;50.884;4.322;2023-06-04T12:11:33;29.60;65.90
22781;DHT22;11557;50.884;4.322;2023-06-04T12:14:03;29.90;67.10
22781;DHT22;11557;50.884;4.322;2023-06-04T12:16:29;29.90;68.10
22781;DHT22;11557;50.884;4.322;2023-06-04T12:19:13;29.70;66.40
22781;DHT22;11557;50.884;4.322;2023-06-04T12:21:39;29.50;67.40
22781;DHT22;11557;50.884;4.322;2023-06-04T12:26:33;29.50;69.30
22781;DHT22;11557;50.884;4.322;2023-06-04T12:29:10;29.60;68.60
22781;DHT22;11557;50.884;4.322;2023-06-04T12:31:37;29.80;68.30
22781;DHT22;11557;50.884;4.322;2023-06-04T12:34:03;29.80;68.90
22781;DHT22;11557;50.884;4.322;2023-06-04T12:36:28;29.70;67.40
22781;DHT22;11557;50.884;4.322;2023-06-04T12:39:00;29.50;68.90
22781;DHT22;11557;50.884;4.322;2023-06-04T12:41:26;29.60;70.40
22781;DHT22;11557;50.884;4.322;2023-06-04T12:43:52;29.60;67.80
22781;DHT22;11557;50.884;4.322;2023-06-04T12:46:18;29.60;67.20
22781;DHT22;11557;50.884;4.322;2023-06-04T12:48:45;29.60;66.70
22781;DHT22;11557;50.884;4.322;2023-06-04T12:51:11;29.60;65.80
22781;DHT22;11557;50.884;4.322;2023-06-04T12:53:40;29.70;68.30
22781;DHT22;11557;50.884;4.322;2023-06-04T12:56:06;29.70;67.90
22781;DHT22;11557;50.884;4.322;2023-06-04T12:58:32;29.60;68.30
22781;DHT22;11557;50.884;4.322;2023-06-04T13:00:57;29.30;69.40
22781;DHT22;11557;50.884;4.322;2023-06-04T13:03:23;29.50;67.00
22781;DHT22;11557;50.884;4.322;2023-06-04T13:05:49;29.60;66.30
22781;DHT22;11557;50.884;4.322;2023-06-04T13:08:16;29.60;67.20
22781;DHT22;11557;50.884;4.322;2023-06-04T13:10:42;29.70;70.20
22781;DHT22;11557;50.884;4.322;2023-06-04T13:13:08;29.60;67.20
22781;DHT22;11557;50.884;4.322;2023-06-04T13:15:33;29.50;68.20
22781;DHT22;11557;50.884;4.322;2023-06-04T13:17:59;29.50;67.60
22781;DHT22;11557;50.884;4.322;2023-06-04T13:20:25;29.70;68.80
22781;DHT22;11557;50.884;4.322;2023-06-04T13:22:51;29.70;68.50
22781;DHT22;11557;50.884;4.322;2023-06-04T13:25:16;29.50;67.50
22781;DHT22;11557;50.884;4.322;2023-06-04T13:27:44;29.50;68.80
22781;DHT22;11557;50.884;4.322;2023-06-04T13:30:10;29.60;66.10
22781;DHT22;11557;50.884;4.322;2023-06-04T13:32:36;29.60;67.20
22781;DHT22;11557;50.884;4.322;2023-06-04T13:35:02;29.70;68.50
22781;DHT22;11557;50.884;4.322;2023-06-04T13:37:27;29.70;65.60
22781;DHT22;11557;50.884;4.322;2023-06-04T13:39:53;29.90;65.10
22781;DHT22;11557;50.884;4.322;2023-06-04T13:42:19;29.90;66.50
22781;DHT22;11557;50.884;4.322;2023-06-04T13:44:46;29.70;66.60
22781;DHT22;11557;50.884;4.322;2023-06-04T13:47:12;29.50;63.20
22781;DHT22;11557;50.884;4.322;2023-06-04T13:49:38;29.50;66.90
22781;DHT22;11557;50.884;4.322;2023-06-04T13:52:03;29.70;65.40
22781;DHT22;11557;50.884;4.322;2023-06-04T13:54:29;29.70;63.60
22781;DHT22;11557;50.884;4.322;2023-06-04T13:56:55;29.50;64.50
22781;DHT22;11557;50.884;4.322;2023-06-04T13:59:21;28.90;64.80
22781;DHT22;11557;50.884;4.322;2023-06-04T14:01:46;29.10;67.30
22781;DHT22;11557;50.884;4.322;2023-06-04T14:04:12;29.20;66.10
22781;DHT22;11557;50.884;4.322;2023-06-04T14:06:37;29.10;66.40
22781;DHT22;11557;50.884;4.322;2023-06-04T14:09:04;29.30;67.20
22781;DHT22;11557;50.884;4.322;2023-06-04T14:11:32;29.30;65.30
22781;DHT22;11557;50.884;4.322;2023-06-04T14:13:58;29.30;66.00
22781;DHT22;11557;50.884;4.322;2023-06-04T14:16:24;29.30;64.50
22781;DHT22;11557;50.884;4.322;2023-06-04T14:18:49;29.20;64.60
22781;DHT22;11557;50.884;4.322;2023-06-04T14:21:15;29.10;66.10
22781;DHT22;11557;50.884;4.322;2023-06-04T14:23:41;29.20;64.70
22781;DHT22;11557;50.884;4.322;2023-06-04T14:26:06;29.20;64.50
22781;DHT22;11557;50.884;4.322;2023-06-04T14:28:32;29.30;66.40
22781;DHT22;11557;50.884;4.322;2023-06-04T14:30:57;29.20;64.00
22781;DHT22;11557;50.884;4.322;2023-06-04T14:33:24;29.10;64.20
22781;DHT22;11557;50.884;4.322;2023-06-04T14:35:50;29.20;67.70
22781;DHT22;11557;50.884;4.322;2023-06-04T14:38:16;29.30;64.20
22781;DHT22;11557;50.884;4.322;2023-06-04T14:40:42;29.30;64.00
22781;DHT22;11557;50.884;4.322;2023-06-04T14:43:13;29.30;64.80
22781;DHT22;11557;50.884;4.322;2023-06-04T14:45:39;29.30;64.10
22781;DHT22;11557;50.884;4.322;2023-06-04T14:48:06;29.30;66.40
22781;DHT22;11557;50.884;4.322;2023-06-04T14:50:32;29.40;65.00
22781;DHT22;11557;50.884;4.322;2023-06-04T14:52:58;29.50;64.30
22781;DHT22;11557;50.884;4.322;2023-06-04T14:55:24;29.40;63.10
22781;DHT22;11557;50.884;4.322;2023-06-04T14:57:50;29.50;65.30
22781;DHT22;11557;50.884;4.322;2023-06-04T15:00:16;29.50;66.50
22781;DHT22;11557;50.884;4.322;2023-06-04T15:02:42;29.40;65.50
22781;DHT22;11557;50.884;4.322;2023-06-04T15:05:08;29.30;66.70
22781;DHT22;11557;50.884;4.322;2023-06-04T15:07:34;29.20;64.80
22781;DHT22;11557;50.884;4.322;2023-06-04T15:09:59;29.10;65.50
22781;DHT22;11557;50.884;4.322;2023-06-04T15:12:27;29.10;65.40
22781;DHT22;11557;50.884;4.322;2023-06-04T15:14:53;29.20;66.00
22781;DHT22;11557;50.884;4.322;2023-06-04T15:17:19;29.00;65.70
22781;DHT22;11557;50.884;4.322;2023-06-04T15:19:44;28.90;64.70
22781;DHT22;11557;50.884;4.322;2023-06-04T15:22:10;30.30;67.00
22781;DHT22;11557;50.884;4.322;2023-06-04T15:24:36;29.30;65.10
22781;DHT22;11557;50.884;4.322;2023-06-04T15:27:02;28.90;65.00
22781;DHT22;11557;50.884;4.322;2023-06-04T15:29:28;29.10;64.50
22781;DHT22;11557;50.884;4.322;2023-06-04T15:31:53;29.10;64.80
22781;DHT22;11557;50.884;4.322;2023-06-04T15:34:19;29.00;65.10
22781;DHT22;11557;50.884;4.322;2023-06-04T15:36:45;29.10;67.40
22781;DHT22;11557;50.884;4.322;2023-06-04T15:39:12;29.00;65.20